createdAt,value
2017-06-01T00:00:56.488Z,97.90
2017-06-01T00:01:56.419Z,97.80
2017-06-01T00:02:56.375Z,97.80
2017-06-01T00:03:56.229Z,97.70
2017-06-01T00:04:56.152Z,97.50
2017-06-01T00:05:56.069Z,97.40
2017-06-01T00:06:56.020Z,97.20
2017-06-01T00:07:56.031Z,97.20
2017-06-01T00:08:55.971Z,97.10
2017-06-01T00:09:55.924Z,97.30
2017-06-01T00:10:55.864Z,97.70
2017-06-01T00:11:55.818Z,97.60
2017-06-01T00:14:48.016Z,97.00
2017-06-01T00:15:47.912Z,97.20
2017-06-01T00:16:47.853Z,97.40
2017-06-01T00:17:47.793Z,97.40
2017-06-01T00:18:47.722Z,97.30
2017-06-01T00:19:47.577Z,97.50
2017-06-01T00:20:47.487Z,97.60
2017-06-01T00:21:47.388Z,97.80
2017-06-01T00:22:47.297Z,98.10
2017-06-01T00:23:47.236Z,98.20
2017-06-01T00:24:47.139Z,98.30
2017-06-01T00:25:47.048Z,98.60
2017-06-01T00:26:46.952Z,98.60
2017-06-01T00:31:31.080Z,98.10
2017-06-01T00:32:30.957Z,98.00
2017-06-01T00:33:30.860Z,98.00
2017-06-01T00:34:30.799Z,98.10
2017-06-01T00:35:30.738Z,97.90
2017-06-01T00:36:30.738Z,97.50
2017-06-01T00:37:30.624Z,97.50
2017-06-01T00:38:30.572Z,97.50
2017-06-01T00:39:30.473Z,97.10
2017-06-01T00:40:30.353Z,97.10
2017-06-01T00:41:30.260Z,96.90
2017-06-01T00:46:14.031Z,97.40
2017-06-01T00:47:13.943Z,97.40
2017-06-01T00:48:13.906Z,97.10
2017-06-01T00:49:13.776Z,97.00
2017-06-01T00:50:13.723Z,97.30
2017-06-01T00:51:13.598Z,97.30
2017-06-01T00:52:13.490Z,97.20
2017-06-01T00:53:13.371Z,97.50
2017-06-01T00:54:13.271Z,97.50
2017-06-01T00:55:13.220Z,97.50
2017-06-01T00:56:13.104Z,97.50
2017-06-01T01:12:22.898Z,97.50
2017-06-01T01:13:22.817Z,97.50
2017-06-01T01:14:22.717Z,97.20
2017-06-01T01:15:22.567Z,97.60
2017-06-01T01:16:22.491Z,97.50
2017-06-01T01:17:22.411Z,97.30
2017-06-01T01:18:22.372Z,97.10
2017-06-01T01:19:22.224Z,97.10
2017-06-01T01:20:22.114Z,96.60
2017-06-01T01:21:22.033Z,97.10
2017-06-01T01:22:22.002Z,97.10
2017-06-01T01:23:21.936Z,96.80
2017-06-01T01:24:21.817Z,97.00
2017-06-01T01:25:21.707Z,96.40
2017-06-01T01:26:21.574Z,96.60
2017-06-01T01:35:13.234Z,96.30
2017-06-01T01:36:13.168Z,96.00
2017-06-01T01:37:13.104Z,96.10
2017-06-01T01:38:13.024Z,96.10
2017-06-01T01:39:12.970Z,96.30
2017-06-01T01:40:12.899Z,96.40
2017-06-01T01:41:12.805Z,96.30
2017-06-01T01:42:12.720Z,96.30
2017-06-01T02:01:51.528Z,96.70
2017-06-01T02:02:51.497Z,96.50
2017-06-01T02:03:51.446Z,96.30
2017-06-01T02:04:51.333Z,96.10
2017-06-01T02:05:51.299Z,96.00
2017-06-01T02:06:51.219Z,96.00
2017-06-01T02:07:51.168Z,96.10
2017-06-01T02:08:51.116Z,96.10
2017-06-01T02:09:51.002Z,96.00
2017-06-01T02:10:50.927Z,96.10
2017-06-01T02:11:50.832Z,95.90
2017-06-01T02:12:50.705Z,96.30
2017-06-01T02:13:50.599Z,95.90
2017-06-01T02:14:50.542Z,95.70
2017-06-01T02:15:50.500Z,95.90
2017-06-01T02:16:50.445Z,95.90
2017-06-01T02:17:50.374Z,96.40
2017-06-01T02:18:50.318Z,96.50
2017-06-01T02:19:50.276Z,96.40
2017-06-01T02:20:50.197Z,96.50
2017-06-01T02:21:50.091Z,96.00
2017-06-01T02:22:50.018Z,95.80
2017-06-01T02:23:49.930Z,95.80
2017-06-01T02:24:49.863Z,95.90
2017-06-01T02:25:49.797Z,95.90
2017-06-01T02:26:49.732Z,95.90
2017-06-01T02:27:49.641Z,96.30
2017-06-01T02:28:49.519Z,96.40
2017-06-01T02:29:49.433Z,96.30
2017-06-01T02:30:49.312Z,96.10
2017-06-01T02:31:49.241Z,95.70
2017-06-01T02:32:49.167Z,95.60
2017-06-01T02:33:49.046Z,95.40
2017-06-01T02:34:48.983Z,95.30
2017-06-01T02:35:48.927Z,95.30
2017-06-01T02:36:48.809Z,95.40
2017-06-01T02:37:48.810Z,95.60
2017-06-01T02:38:49.439Z,95.50
2017-06-01T02:39:49.405Z,95.50
2017-06-01T02:40:49.365Z,96.00
2017-06-01T02:41:49.294Z,96.00
2017-06-01T02:42:49.250Z,95.60
2017-06-01T02:43:49.175Z,95.50
2017-06-01T02:44:49.132Z,95.60
2017-06-01T02:45:49.130Z,95.60
2017-06-01T02:46:49.058Z,95.80
2017-06-01T02:47:49.027Z,95.80
2017-06-01T02:48:48.944Z,95.90
2017-06-01T02:49:48.932Z,95.90
2017-06-01T02:50:48.887Z,96.30
2017-06-01T02:51:48.819Z,96.10
2017-06-01T02:52:48.698Z,96.30
2017-06-01T02:53:48.574Z,96.20
2017-06-01T02:54:48.457Z,96.40
2017-06-01T02:55:48.408Z,96.50
2017-06-01T02:56:48.320Z,96.10
2017-06-01T03:03:28.273Z,96.60
2017-06-01T03:04:28.182Z,96.40
2017-06-01T03:05:28.149Z,96.40
2017-06-01T03:06:28.129Z,96.40
2017-06-01T03:07:28.049Z,96.50
2017-06-01T03:08:28.052Z,96.50
2017-06-01T03:09:27.987Z,96.70
2017-06-01T03:10:27.983Z,96.80
2017-06-01T03:11:28.384Z,96.80
2017-06-01T03:15:34.772Z,95.70
2017-06-01T03:16:35.278Z,95.60
2017-06-01T03:17:36.550Z,95.40
2017-06-01T03:18:37.293Z,95.20
2017-06-01T03:19:37.481Z,95.40
2017-06-01T03:20:38.225Z,95.30
2017-06-01T03:21:38.999Z,95.20
2017-06-01T03:22:39.454Z,95.10
2017-06-01T03:23:39.896Z,94.80
2017-06-01T03:24:40.124Z,94.80
2017-06-01T03:25:41.407Z,94.80
2017-06-01T03:26:42.120Z,94.90
2017-06-01T03:27:42.918Z,94.90
2017-06-01T03:28:43.440Z,94.70
2017-06-01T03:29:45.414Z,94.40
2017-06-01T03:30:45.871Z,94.60
2017-06-01T03:31:46.902Z,94.90
2017-06-01T03:32:47.289Z,95.30
2017-06-01T03:33:48.030Z,95.00
2017-06-01T03:34:49.730Z,95.00
2017-06-01T03:35:50.194Z,94.80
2017-06-01T03:36:50.679Z,95.00
2017-06-01T03:37:51.666Z,94.90
2017-06-01T03:38:52.001Z,94.70
2017-06-01T03:39:53.209Z,95.00
2017-06-01T03:40:53.957Z,94.90
2017-06-01T03:41:55.472Z,95.10
2017-06-01T03:52:35.822Z,94.80
2017-06-01T03:53:37.624Z,94.60
2017-06-01T03:54:38.155Z,94.80
2017-06-01T03:55:38.108Z,95.10
2017-06-01T03:56:38.348Z,95.10
2017-06-01T03:59:29.966Z,94.90
2017-06-01T04:00:30.326Z,94.90
2017-06-01T04:01:30.522Z,95.00
2017-06-01T04:02:31.472Z,94.90
2017-06-01T04:03:31.365Z,95.00
2017-06-01T04:04:31.300Z,95.20
2017-06-01T04:05:31.194Z,95.40
2017-06-01T04:06:31.151Z,94.70
2017-06-01T04:07:31.103Z,94.70
2017-06-01T04:08:31.549Z,95.10
2017-06-01T04:09:32.039Z,94.80
2017-06-01T04:10:32.353Z,94.90
2017-06-01T04:11:32.560Z,94.90
2017-06-01T04:12:32.740Z,94.90
2017-06-01T04:17:53.423Z,94.60
2017-06-01T04:18:53.688Z,95.10
2017-06-01T04:19:54.236Z,94.20
2017-06-01T04:20:54.953Z,94.40
2017-06-01T04:21:55.765Z,93.80
2017-06-01T04:22:56.416Z,93.90
2017-06-01T04:23:56.843Z,94.00
2017-06-01T04:24:57.761Z,94.30
2017-06-01T04:26:03.319Z,94.40
2017-06-01T04:27:04.037Z,94.20
2017-06-01T04:32:22.536Z,93.90
2017-06-01T04:33:22.985Z,93.50
2017-06-01T04:34:24.443Z,93.60
2017-06-01T04:35:24.874Z,94.40
2017-06-01T04:36:25.042Z,94.40
2017-06-01T04:37:25.849Z,94.30
2017-06-01T04:38:26.280Z,94.30
2017-06-01T04:39:26.163Z,94.40
2017-06-01T04:40:26.602Z,94.20
2017-06-01T04:41:27.132Z,93.50
2017-06-01T04:42:27.481Z,93.80
2017-06-01T04:43:29.058Z,94.20
2017-06-01T04:44:29.979Z,94.60
2017-06-01T04:45:31.002Z,94.70
2017-06-01T04:46:31.458Z,94.90
2017-06-01T04:47:33.035Z,94.80
2017-06-01T04:48:33.649Z,94.60
2017-06-01T04:49:34.651Z,94.60
2017-06-01T04:50:35.844Z,94.00
2017-06-01T04:51:36.561Z,94.00
2017-06-01T04:52:37.163Z,94.10
2017-06-01T04:53:37.828Z,94.20
2017-06-01T04:54:38.515Z,94.30
2017-06-01T04:55:39.304Z,94.40
2017-06-01T04:56:40.796Z,94.40
2017-06-01T04:57:41.678Z,94.50
2017-06-01T05:11:48.424Z,92.80
2017-06-01T05:12:48.852Z,92.10
2017-06-01T05:13:48.709Z,92.00
2017-06-01T05:14:48.590Z,91.40
2017-06-01T05:15:48.476Z,90.40
2017-06-01T05:16:48.376Z,89.40
2017-06-01T05:17:48.552Z,88.90
2017-06-01T05:18:48.840Z,87.30
2017-06-01T05:19:48.703Z,86.90
2017-06-01T05:20:48.585Z,87.90
2017-06-01T05:21:48.780Z,87.10
2017-06-01T05:22:48.707Z,85.40
2017-06-01T05:23:48.605Z,82.90
2017-06-01T05:24:48.487Z,80.90
2017-06-01T05:25:48.418Z,78.70
2017-06-01T05:26:50.403Z,77.20
2017-06-01T05:31:35.859Z,67.20
2017-06-01T05:32:37.878Z,65.10
2017-06-01T05:33:39.795Z,62.60
2017-06-01T05:34:40.838Z,59.30
2017-06-01T05:35:41.353Z,58.00
2017-06-01T05:36:41.847Z,57.40
2017-06-01T05:37:43.012Z,55.10
2017-06-01T05:38:44.385Z,54.50
2017-06-01T05:39:45.130Z,55.80
2017-06-01T05:40:45.131Z,58.00
2017-06-01T05:41:45.302Z,58.80
2017-06-01T05:42:46.302Z,56.10
2017-06-01T05:43:46.805Z,55.90
2017-06-01T05:44:46.744Z,54.80
2017-06-01T05:45:46.770Z,53.00
2017-06-01T05:46:47.195Z,52.00
2017-06-01T05:47:47.279Z,52.10
2017-06-01T05:48:47.453Z,51.10
2017-06-01T05:49:48.124Z,50.50
2017-06-01T05:50:48.285Z,50.40
2017-06-01T05:51:48.315Z,49.70
2017-06-01T05:52:48.747Z,50.60
2017-06-01T05:53:49.236Z,51.00
2017-06-01T05:54:49.712Z,49.90
2017-06-01T05:55:50.478Z,49.10
2017-06-01T05:56:50.489Z,48.70
2017-06-01T05:57:50.387Z,50.50
2017-06-01T05:58:50.366Z,48.70
2017-06-01T05:59:50.252Z,49.90
2017-06-01T06:00:50.166Z,49.90
2017-06-01T06:01:50.112Z,49.40
2017-06-01T06:02:50.051Z,47.80
2017-06-01T06:03:50.070Z,47.40
2017-06-01T06:04:50.007Z,46.90
2017-06-01T06:05:49.953Z,46.90
2017-06-01T06:06:49.821Z,48.00
2017-06-01T06:07:49.771Z,48.20
2017-06-01T06:08:49.750Z,46.90
2017-06-01T06:09:49.649Z,47.50
2017-06-01T06:10:49.557Z,45.90
2017-06-01T06:11:50.052Z,47.10
2017-06-01T06:12:50.065Z,47.70
2017-06-01T06:13:50.034Z,46.80
2017-06-01T06:14:49.916Z,46.20
2017-06-01T06:15:49.840Z,46.70
2017-06-01T06:16:50.017Z,48.90
2017-06-01T06:17:49.909Z,49.40
2017-06-01T06:18:50.251Z,47.60
2017-06-01T06:19:50.658Z,48.30
2017-06-01T06:20:50.596Z,49.30
2017-06-01T06:21:50.690Z,49.30
2017-06-01T06:22:50.908Z,51.00
2017-06-01T06:23:51.156Z,50.80
2017-06-01T06:24:51.496Z,51.10
2017-06-01T06:25:52.136Z,53.30
2017-06-01T06:26:52.296Z,54.30
2017-06-01T06:27:53.091Z,57.50
2017-06-01T06:28:53.756Z,59.20
2017-06-01T06:29:54.711Z,61.70
2017-06-01T06:30:55.457Z,61.10
2017-06-01T06:31:56.161Z,62.80
2017-06-01T06:32:59.208Z,65.30
2017-06-01T06:33:59.792Z,64.40
2017-06-01T06:35:00.756Z,67.20
2017-06-01T06:36:01.553Z,67.10
2017-06-01T06:37:03.031Z,68.50
2017-06-01T06:38:03.825Z,71.10
2017-06-01T06:39:05.212Z,70.80
2017-06-01T06:40:07.815Z,70.50
2017-06-01T06:41:09.302Z,72.30
2017-06-01T06:42:10.832Z,73.50
2017-06-01T06:43:11.513Z,73.50
2017-06-01T06:44:11.429Z,72.70
2017-06-01T06:45:11.363Z,73.40
2017-06-01T06:46:11.291Z,72.40
2017-06-01T06:47:11.208Z,73.70
2017-06-01T06:48:11.630Z,72.60
2017-06-01T06:49:11.746Z,74.10
2017-06-01T06:50:11.674Z,74.70
2017-06-01T06:51:11.569Z,75.50
2017-06-01T06:52:11.978Z,76.70
2017-06-01T06:53:12.586Z,73.40
2017-06-01T06:54:13.352Z,74.00
2017-06-01T06:55:14.284Z,74.40
2017-06-01T06:56:14.965Z,73.40
2017-06-01T06:57:15.467Z,74.70
2017-06-01T06:58:16.406Z,73.40
2017-06-01T06:59:18.622Z,74.10
2017-06-01T07:00:19.337Z,74.70
2017-06-01T07:01:20.249Z,71.20
2017-06-01T07:02:22.691Z,72.70
2017-06-01T07:03:23.432Z,72.50
2017-06-01T07:04:24.256Z,74.80
2017-06-01T07:05:25.609Z,74.70
2017-06-01T07:06:26.365Z,72.10
2017-06-01T07:07:27.742Z,71.70
2017-06-01T07:08:28.818Z,70.80
2017-06-01T07:09:29.733Z,69.60
2017-06-01T07:10:30.468Z,67.60
2017-06-01T07:11:30.899Z,67.90
2017-06-01T07:12:31.686Z,71.00
2017-06-01T07:13:32.467Z,69.90
2017-06-01T07:14:33.483Z,71.10
2017-06-01T07:15:36.426Z,74.10
2017-06-01T07:16:37.097Z,72.50
2017-06-01T07:17:38.086Z,71.00
2017-06-01T07:18:39.208Z,69.10
2017-06-01T07:19:44.071Z,68.00
2017-06-01T07:20:48.816Z,66.90
2017-06-01T07:21:50.546Z,68.50
2017-06-01T07:22:52.794Z,69.40
2017-06-01T07:23:53.531Z,68.60
2017-06-01T07:24:54.495Z,68.50
2017-06-01T07:25:55.249Z,69.90
2017-06-01T07:26:55.778Z,67.90
2017-06-01T07:28:13.280Z,67.10
2017-06-01T07:29:13.542Z,68.00
2017-06-01T07:30:13.931Z,65.00
2017-06-01T07:31:14.579Z,66.50
2017-06-01T07:32:16.617Z,66.30
2017-06-01T07:33:16.808Z,68.50
2017-06-01T07:34:18.542Z,69.70
2017-06-01T07:35:19.738Z,69.10
2017-06-01T07:36:20.492Z,67.10
2017-06-01T07:37:25.824Z,67.00
2017-06-01T07:38:28.287Z,66.80
2017-06-01T07:39:28.983Z,65.70
2017-06-01T07:40:29.502Z,66.80
2017-06-01T07:41:30.524Z,66.80
2017-06-01T07:42:31.468Z,65.20
2017-06-01T07:43:32.421Z,64.80
2017-06-01T07:44:33.145Z,65.90
2017-06-01T07:45:33.855Z,64.10
2017-06-01T07:46:35.154Z,66.20
2017-06-01T07:47:37.451Z,66.20
2017-06-01T07:48:38.244Z,67.90
2017-06-01T07:49:38.928Z,70.10
2017-06-01T07:50:39.685Z,70.40
2017-06-01T07:51:39.544Z,70.90
2017-06-01T07:52:39.464Z,72.10
2017-06-01T07:53:39.383Z,72.40
2017-06-01T07:54:39.280Z,73.30
2017-06-01T07:55:39.209Z,74.10
2017-06-01T07:56:39.039Z,73.70
2017-06-01T07:57:38.910Z,73.90
2017-06-01T08:04:14.632Z,71.20
2017-06-01T08:05:14.533Z,67.50
2017-06-01T08:06:14.375Z,70.70
2017-06-01T08:07:14.224Z,70.60
2017-06-01T08:08:14.097Z,69.10
2017-06-01T08:09:13.985Z,68.60
2017-06-01T08:10:13.924Z,67.60
2017-06-01T08:11:13.789Z,70.80
2017-06-01T08:12:13.659Z,72.00
2017-06-01T08:13:21.707Z,69.40
2017-06-01T08:14:21.607Z,69.10
2017-06-01T08:15:21.737Z,69.90
2017-06-01T08:16:21.695Z,70.20
2017-06-01T08:17:21.566Z,70.60
2017-06-01T08:18:21.476Z,70.20
2017-06-01T08:19:21.406Z,68.70
2017-06-01T08:20:21.277Z,69.30
2017-06-01T08:21:21.247Z,67.00
2017-06-01T08:22:21.130Z,70.30
2017-06-01T08:23:21.041Z,69.10
2017-06-01T08:24:20.992Z,68.20
2017-06-01T08:25:21.182Z,66.60
2017-06-01T08:26:21.085Z,66.80
2017-06-01T08:27:21.047Z,67.80
2017-06-01T08:28:21.555Z,69.40
2017-06-01T08:29:21.684Z,69.00
2017-06-01T08:30:21.924Z,66.80
2017-06-01T08:31:21.785Z,68.20
2017-06-01T08:32:22.217Z,68.20
2017-06-01T08:33:22.341Z,67.30
2017-06-01T08:34:22.178Z,66.50
2017-06-01T08:35:22.078Z,66.40
2017-06-01T08:36:22.009Z,66.30
2017-06-01T08:37:21.886Z,67.70
2017-06-01T08:38:21.740Z,67.30
2017-06-01T08:39:21.595Z,67.20
2017-06-01T08:40:21.557Z,68.50
2017-06-01T08:41:21.688Z,67.00
2017-06-01T08:42:21.583Z,67.50
2017-06-01T08:47:26.376Z,67.70
2017-06-01T08:48:26.221Z,67.00
2017-06-01T08:49:26.375Z,66.40
2017-06-01T08:50:26.286Z,66.30
2017-06-01T08:51:26.480Z,66.00
2017-06-01T08:52:26.634Z,68.50
2017-06-01T08:53:26.546Z,69.50
2017-06-01T08:54:26.436Z,67.70
2017-06-01T08:55:26.609Z,67.50
2017-06-01T08:56:26.467Z,67.90
2017-06-01T08:57:26.356Z,66.80
2017-06-01T08:58:48.279Z,66.40
2017-06-01T08:59:49.987Z,63.70
2017-06-01T09:00:51.551Z,64.40
2017-06-01T09:01:51.570Z,64.50
2017-06-01T09:02:52.030Z,65.30
2017-06-01T09:03:51.865Z,65.10
2017-06-01T09:04:51.766Z,65.10
2017-06-01T09:05:51.986Z,66.00
2017-06-01T09:06:51.952Z,64.70
2017-06-01T09:07:51.856Z,62.00
2017-06-01T09:08:51.768Z,64.50
2017-06-01T09:09:51.929Z,63.30
2017-06-01T09:10:52.066Z,62.70
2017-06-01T09:11:52.023Z,66.00
2017-06-01T09:12:51.959Z,66.00
2017-06-01T09:13:51.853Z,61.90
2017-06-01T09:14:51.784Z,61.30
2017-06-01T09:15:52.003Z,61.70
2017-06-01T09:16:51.856Z,62.40
2017-06-01T09:17:51.872Z,62.50
2017-06-01T09:18:51.757Z,61.70
2017-06-01T09:19:51.592Z,62.50
2017-06-01T09:20:51.773Z,63.00
2017-06-01T09:21:51.727Z,64.80
2017-06-01T09:22:51.646Z,66.20
2017-06-01T09:23:51.525Z,66.90
2017-06-01T09:24:51.489Z,64.90
2017-06-01T09:25:51.380Z,65.00
2017-06-01T09:26:51.292Z,63.70
2017-06-01T09:27:51.203Z,64.70
2017-06-01T09:28:51.154Z,66.70
2017-06-01T09:29:51.311Z,66.40
2017-06-01T09:30:51.857Z,66.40
2017-06-01T09:31:52.011Z,67.10
2017-06-01T09:32:51.906Z,65.80
2017-06-01T09:33:51.844Z,65.90
2017-06-01T09:34:51.719Z,65.20
2017-06-01T09:35:51.681Z,67.00
2017-06-01T09:36:51.576Z,66.20
2017-06-01T09:37:51.656Z,59.20
2017-06-01T09:38:51.559Z,59.70
2017-06-01T09:39:51.499Z,61.40
2017-06-01T09:40:51.381Z,61.80
2017-06-01T09:41:51.316Z,58.90
2017-06-01T09:42:51.209Z,61.30
2017-06-01T09:45:43.464Z,60.60
2017-06-01T09:46:43.358Z,60.00
2017-06-01T09:47:43.252Z,61.00
2017-06-01T09:48:43.229Z,59.90
2017-06-01T09:49:43.130Z,61.50
2017-06-01T09:50:43.139Z,59.40
2017-06-01T09:51:43.079Z,59.20
2017-06-01T09:52:42.946Z,60.30
2017-06-01T09:53:42.823Z,59.40
2017-06-01T09:54:42.681Z,57.60
2017-06-01T09:55:42.515Z,61.10
2017-06-01T09:56:42.715Z,59.50
2017-06-01T09:57:42.671Z,62.50
2017-06-01T10:10:09.808Z,64.10
2017-06-01T10:11:09.768Z,65.50
2017-06-01T10:12:09.709Z,60.20
2017-06-01T10:13:09.603Z,61.10
2017-06-01T10:14:09.556Z,59.80
2017-06-01T10:15:09.496Z,61.20
2017-06-01T10:16:09.463Z,62.80
2017-06-01T10:17:09.397Z,62.10
2017-06-01T10:18:09.344Z,59.80
2017-06-01T10:19:09.307Z,61.40
2017-06-01T10:20:09.231Z,62.00
2017-06-01T10:21:09.194Z,64.30
2017-06-01T10:22:09.104Z,60.30
2017-06-01T10:23:09.051Z,59.70
2017-06-01T10:24:08.980Z,60.60
2017-06-01T10:25:09.040Z,59.40
2017-06-01T10:26:08.920Z,59.60
2017-06-01T10:27:08.863Z,55.70
2017-06-01T10:28:08.779Z,57.70
2017-06-01T10:29:08.808Z,57.70
2017-06-01T10:30:08.690Z,58.80
2017-06-01T10:31:08.638Z,59.30
2017-06-01T10:32:08.541Z,59.70
2017-06-01T10:33:08.438Z,55.80
2017-06-01T10:34:08.357Z,56.80
2017-06-01T10:35:08.313Z,58.10
2017-06-01T10:36:08.234Z,56.60
2017-06-01T10:37:08.137Z,55.50
2017-06-01T10:38:08.065Z,56.20
2017-06-01T10:39:07.949Z,54.90
2017-06-01T10:40:07.913Z,53.60
2017-06-01T10:41:07.812Z,53.80
2017-06-01T10:42:07.793Z,55.70
2017-06-01T10:43:07.699Z,53.70
2017-06-01T10:44:07.776Z,53.00
2017-06-01T10:45:07.653Z,51.50
2017-06-01T10:46:07.510Z,52.40
2017-06-01T10:47:07.705Z,52.20
2017-06-01T10:48:07.623Z,52.20
2017-06-01T10:49:07.522Z,51.90
2017-06-01T10:50:07.384Z,51.70
2017-06-01T10:51:07.535Z,49.20
2017-06-01T10:52:07.456Z,48.40
2017-06-01T10:53:07.654Z,47.30
2017-06-01T10:54:07.555Z,48.30
2017-06-01T10:55:07.875Z,49.00
2017-06-01T10:56:07.778Z,47.60
2017-06-01T10:57:07.864Z,45.70
2017-06-01T10:58:07.749Z,46.10
2017-06-01T10:59:23.995Z,47.20
2017-06-01T11:00:24.201Z,50.60
2017-06-01T11:01:24.392Z,50.00
2017-06-01T11:02:24.519Z,47.30
2017-06-01T11:03:24.397Z,48.10
2017-06-01T11:04:24.295Z,47.70
2017-06-01T11:05:24.970Z,47.00
2017-06-01T11:06:25.142Z,48.10
2017-06-01T11:07:25.328Z,47.30
2017-06-01T11:08:25.201Z,48.60
2017-06-01T11:09:25.612Z,48.90
2017-06-01T11:10:25.485Z,48.70
2017-06-01T11:11:25.908Z,49.30
2017-06-01T11:12:25.782Z,47.90
2017-06-01T11:13:25.672Z,49.00
2017-06-01T11:14:25.893Z,48.30
2017-06-01T11:15:25.783Z,47.80
2017-06-01T11:16:25.843Z,49.10
2017-06-01T11:17:26.296Z,49.20
2017-06-01T11:18:26.152Z,49.20
2017-06-01T11:19:26.346Z,49.90
2017-06-01T11:20:26.995Z,47.50
2017-06-01T11:21:26.944Z,50.00
2017-06-01T11:22:27.664Z,49.40
2017-06-01T11:23:28.012Z,48.40
2017-06-01T11:24:28.688Z,48.70
2017-06-01T11:25:29.108Z,47.10
2017-06-01T11:26:29.869Z,48.00
2017-06-01T11:27:29.758Z,48.40
2017-06-01T11:28:29.656Z,49.10
2017-06-01T11:29:30.075Z,48.70
2017-06-01T11:30:29.998Z,48.90
2017-06-01T11:31:29.905Z,49.10
2017-06-01T11:32:30.389Z,51.00
2017-06-01T11:33:30.310Z,51.60
2017-06-01T11:34:30.451Z,52.10
2017-06-01T11:35:30.617Z,52.70
2017-06-01T11:36:31.997Z,55.20
2017-06-01T11:37:32.944Z,57.00
2017-06-01T11:38:33.661Z,60.10
2017-06-01T11:39:37.347Z,59.90
2017-06-01T11:40:37.796Z,60.90
2017-06-01T11:41:38.476Z,64.80
2017-06-01T11:42:39.562Z,62.10
2017-06-01T11:43:40.227Z,64.50
2017-06-01T11:44:40.943Z,66.00
2017-06-01T11:45:41.611Z,62.30
2017-06-01T11:46:42.055Z,62.60
2017-06-01T11:47:42.745Z,64.90
2017-06-01T11:48:43.177Z,61.60
2017-06-01T11:49:43.136Z,63.30
2017-06-01T11:50:43.889Z,63.10
2017-06-01T11:51:44.304Z,61.70
2017-06-01T11:52:44.484Z,61.10
2017-06-01T11:53:45.359Z,63.20
2017-06-01T11:54:45.738Z,61.00
2017-06-01T11:55:46.181Z,61.90
2017-06-01T11:56:46.965Z,60.50
2017-06-01T11:57:48.107Z,60.90
2017-06-01T12:13:43.791Z,73.20
2017-06-01T12:14:43.822Z,74.30
2017-06-01T12:15:44.000Z,75.90
2017-06-01T12:16:44.023Z,78.10
2017-06-01T12:17:43.944Z,79.10
2017-06-01T12:18:43.836Z,78.90
2017-06-01T12:19:43.777Z,79.10
2017-06-01T12:20:43.732Z,80.00
2017-06-01T12:21:44.250Z,79.90
2017-06-01T12:22:44.469Z,80.20
2017-06-01T12:23:44.744Z,81.00
2017-06-01T12:24:45.196Z,81.10
2017-06-01T12:25:45.878Z,80.50
2017-06-01T12:26:45.823Z,81.40
2017-06-01T12:27:46.714Z,82.30
2017-06-01T12:28:47.660Z,83.30
2017-06-01T12:29:47.860Z,82.90
2017-06-01T12:30:48.168Z,83.20
2017-06-01T12:31:48.881Z,82.10
2017-06-01T12:32:49.558Z,81.20
2017-06-01T12:33:50.178Z,80.80
2017-06-01T12:34:50.953Z,80.20
2017-06-01T12:35:51.190Z,81.10
2017-06-01T12:36:51.848Z,82.00
2017-06-01T12:37:51.879Z,80.60
2017-06-01T12:38:52.177Z,81.40
2017-06-01T12:39:52.476Z,80.30
2017-06-01T12:40:52.741Z,80.40
2017-06-01T12:41:53.187Z,80.90
2017-06-01T12:42:53.352Z,81.70
2017-06-01T13:01:19.051Z,88.50
2017-06-01T13:02:19.349Z,89.20
2017-06-01T13:03:19.316Z,89.10
2017-06-01T13:04:19.302Z,89.10
2017-06-01T13:05:19.833Z,88.70
2017-06-01T13:06:20.140Z,89.90
2017-06-01T13:07:20.446Z,89.30
2017-06-01T13:08:20.412Z,89.20
2017-06-01T13:09:20.594Z,90.00
2017-06-01T13:10:21.117Z,90.10
2017-06-01T13:11:21.142Z,90.30
2017-06-01T13:12:21.499Z,89.40
2017-06-01T13:13:21.503Z,89.50
2017-06-01T13:18:26.165Z,88.90
2017-06-01T13:19:26.305Z,88.50
2017-06-01T13:20:27.066Z,86.60
2017-06-01T13:21:27.169Z,84.70
2017-06-01T13:22:27.698Z,85.50
2017-06-01T13:23:27.829Z,86.80
2017-06-01T13:24:27.999Z,87.10
2017-06-01T13:25:27.886Z,87.60
2017-06-01T13:26:27.952Z,86.00
2017-06-01T13:27:27.898Z,84.70
2017-06-01T13:28:27.780Z,82.10
2017-06-01T13:31:19.221Z,84.70
2017-06-01T13:32:19.180Z,85.10
2017-06-01T13:33:19.102Z,85.30
2017-06-01T13:34:19.298Z,84.90
2017-06-01T13:35:19.203Z,84.80
2017-06-01T13:36:19.072Z,84.10
2017-06-01T13:37:19.249Z,84.30
2017-06-01T13:38:19.452Z,84.30
2017-06-01T13:39:19.439Z,82.80
2017-06-01T13:40:19.865Z,82.90
2017-06-01T13:41:20.083Z,83.60
2017-06-01T13:42:20.223Z,84.20
2017-06-01T13:43:20.327Z,84.80
2017-06-01T13:44:20.356Z,86.00
2017-06-01T13:45:20.335Z,86.10
2017-06-01T13:46:20.288Z,85.90
2017-06-01T13:47:20.790Z,86.50
2017-06-01T13:48:20.689Z,86.90
2017-06-01T13:49:21.741Z,87.40
2017-06-01T13:50:21.920Z,87.80
2017-06-01T13:51:21.883Z,88.00
2017-06-01T13:52:21.831Z,87.80
2017-06-01T13:53:22.289Z,83.50
2017-06-01T13:54:22.965Z,83.80
2017-06-01T13:55:23.417Z,83.90
2017-06-01T13:56:23.325Z,84.20
2017-06-01T13:57:23.565Z,84.70
2017-06-01T13:58:23.887Z,85.40
2017-06-01T14:14:19.041Z,80.50
2017-06-01T14:15:18.947Z,79.40
2017-06-01T14:16:18.896Z,79.40
2017-06-01T14:17:19.084Z,78.60
2017-06-01T14:18:19.127Z,78.40
2017-06-01T14:19:19.386Z,80.20
2017-06-01T14:20:19.809Z,79.80
2017-06-01T14:21:19.680Z,79.00
2017-06-01T14:22:19.846Z,79.00
2017-06-01T14:23:19.965Z,79.00
2017-06-01T14:24:19.869Z,79.40
2017-06-01T14:25:20.023Z,78.90
2017-06-01T14:26:19.966Z,79.00
2017-06-01T14:27:20.418Z,79.50
2017-06-01T14:28:20.848Z,78.60
2017-06-01T14:29:21.603Z,79.40
2017-06-01T14:30:23.452Z,78.60
2017-06-01T14:31:25.457Z,78.00
2017-06-01T14:32:27.485Z,77.00
2017-06-01T14:33:27.817Z,75.80
2017-06-01T14:34:28.029Z,76.90
2017-06-01T14:35:29.756Z,75.80
2017-06-01T14:36:29.775Z,75.00
2017-06-01T14:37:29.685Z,74.90
2017-06-01T14:38:30.112Z,73.80
2017-06-01T14:39:30.116Z,74.60
2017-06-01T14:40:30.229Z,75.70
2017-06-01T14:41:30.757Z,75.10
2017-06-01T14:42:30.655Z,75.80
2017-06-01T14:43:30.844Z,76.10
2017-06-01T14:50:06.646Z,77.50
2017-06-01T14:51:07.027Z,77.70
2017-06-01T14:52:08.147Z,77.40
2017-06-01T14:53:08.465Z,77.90
2017-06-01T14:54:08.915Z,77.50
2017-06-01T14:55:08.793Z,79.10
2017-06-01T14:56:09.030Z,79.70
2017-06-01T14:57:09.113Z,79.40
2017-06-01T14:58:09.126Z,78.60
2017-06-01T14:59:09.166Z,80.20
2017-06-01T15:00:09.321Z,79.40
2017-06-01T15:01:09.658Z,79.90
2017-06-01T15:02:09.801Z,80.20
2017-06-01T15:03:09.676Z,80.00
2017-06-01T15:04:09.757Z,81.70
2017-06-01T15:05:10.243Z,81.10
2017-06-01T15:06:10.163Z,81.80
2017-06-01T15:07:10.291Z,82.00
2017-06-01T15:08:10.869Z,81.30
2017-06-01T15:09:10.821Z,82.90
2017-06-01T15:10:11.208Z,83.00
2017-06-01T15:11:11.382Z,83.10
2017-06-01T15:12:11.798Z,84.00
2017-06-01T15:13:12.231Z,83.30
2017-06-01T15:14:12.253Z,83.50
2017-06-01T15:15:12.168Z,83.60
2017-06-01T15:16:12.913Z,82.60
2017-06-01T15:17:13.103Z,82.80
2017-06-01T15:18:13.269Z,83.70
2017-06-01T15:19:13.307Z,83.50
2017-06-01T15:20:13.538Z,83.40
2017-06-01T15:21:13.543Z,83.80
2017-06-01T15:22:13.641Z,84.20
2017-06-01T15:23:14.057Z,84.40
2017-06-01T15:24:13.979Z,84.20
2017-06-01T15:25:13.849Z,84.40
2017-06-01T15:26:13.739Z,83.70
2017-06-01T15:27:13.569Z,83.60
2017-06-01T15:28:13.495Z,84.20
2017-06-01T15:29:13.631Z,84.10
2017-06-01T15:33:43.544Z,84.20
2017-06-01T15:36:12.836Z,84.80
2017-06-01T15:38:42.037Z,84.80
2017-06-01T15:41:11.191Z,84.80
2017-06-01T15:43:40.180Z,84.30
2017-06-01T15:46:09.389Z,85.40
2017-06-01T15:48:38.559Z,85.00
2017-06-01T15:51:07.551Z,84.90
2017-06-01T15:53:36.787Z,85.50
2017-06-01T15:56:05.995Z,85.80
2017-06-01T15:58:35.166Z,86.30
2017-06-01T16:01:04.545Z,86.20
2017-06-01T16:03:33.708Z,86.80
2017-06-01T16:06:02.921Z,87.60
2017-06-01T16:08:32.123Z,88.40
2017-06-01T16:11:01.326Z,89.40
2017-06-01T16:13:30.495Z,90.30
